createdAt,value
2022-09-05T00:10:18.717Z,20.29
2022-09-05T00:24:23.214Z,20.24
2022-09-05T00:31:53.552Z,20.11
2022-09-05T00:41:54.489Z,20.11
2022-09-05T00:52:10.519Z,20.04
2022-09-05T01:02:21.430Z,20.02
2022-09-05T01:12:52.980Z,19.95
2022-09-05T01:23:09.847Z,19.92
2022-09-05T01:33:25.737Z,19.77
2022-09-05T01:43:42.683Z,19.74
2022-09-05T01:53:55.467Z,19.64
2022-09-05T02:04:26.275Z,19.56
2022-09-05T02:14:44.715Z,19.47
2022-09-05T02:24:58.541Z,19.37
2022-09-05T02:35:48.717Z,19.29
2022-09-05T02:46:12.577Z,19.20
2022-09-05T02:57:36.530Z,19.17
2022-09-05T03:07:24.073Z,19.13
2022-09-05T03:18:19.932Z,19.00
2022-09-05T03:29:00.809Z,18.89
2022-09-05T03:39:22.253Z,18.88
2022-09-05T03:53:09.220Z,18.84
2022-09-05T04:00:08.420Z,18.79
2022-09-05T04:10:32.028Z,18.62
2022-09-05T04:20:40.487Z,18.58
2022-09-05T04:31:08.558Z,18.54
2022-09-05T04:41:17.867Z,18.52
2022-09-05T04:51:46.728Z,18.62
2022-09-05T05:06:00.596Z,18.75
2022-09-05T05:17:54.427Z,18.84
2022-09-05T05:23:54.540Z,19.04
2022-09-05T05:34:02.373Z,19.28
2022-09-05T05:44:18.710Z,19.54
2022-09-05T05:54:32.314Z,19.71
2022-09-05T06:04:55.168Z,20.21
2022-09-05T06:15:25.161Z,20.44
2022-09-05T06:25:48.237Z,20.86
2022-09-05T06:35:49.645Z,21.44
2022-09-05T06:46:05.140Z,22.08
2022-09-05T06:56:25.554Z,23.47
2022-09-05T07:07:01.889Z,38.92
2022-09-05T07:17:20.106Z,41.67
2022-09-05T07:27:44.437Z,41.15
2022-09-05T07:38:14.627Z,43.88
2022-09-05T07:48:34.282Z,46.44
2022-09-05T07:58:52.530Z,46.13
2022-09-05T08:09:21.606Z,46.38
2022-09-05T08:19:47.898Z,48.59
2022-09-05T08:30:27.124Z,48.70
2022-09-05T08:40:37.187Z,52.32
2022-09-05T08:50:50.989Z,50.51
2022-09-05T09:01:10.038Z,53.25
2022-09-05T09:11:39.757Z,53.22
2022-09-05T09:22:02.335Z,51.47
2022-09-05T09:32:24.291Z,51.69
2022-09-05T09:42:45.765Z,52.19
2022-09-05T09:53:05.399Z,51.86
2022-09-05T10:05:30.141Z,51.81
2022-09-05T10:14:49.691Z,51.73
2022-09-05T10:25:12.215Z,50.14
2022-09-05T10:35:34.415Z,49.91
2022-09-05T10:45:57.474Z,48.26
2022-09-05T10:56:06.712Z,49.46
2022-09-05T11:06:15.583Z,46.93
2022-09-05T11:16:35.959Z,38.84
2022-09-05T11:27:23.283Z,35.62
2022-09-05T11:40:02.214Z,33.71
2022-09-05T11:48:28.439Z,33.16
2022-09-05T11:58:43.452Z,32.37
2022-09-05T12:09:07.940Z,33.16
2022-09-05T12:19:35.284Z,33.17
2022-09-05T12:29:51.235Z,33.52
2022-09-05T12:41:37.435Z,33.91
2022-09-05T12:50:54.576Z,34.89
2022-09-05T13:03:00.954Z,34.44
2022-09-05T13:14:58.638Z,35.28
2022-09-05T13:22:17.102Z,35.10
2022-09-05T13:38:04.234Z,34.49
2022-09-05T13:43:10.092Z,35.32
2022-09-05T13:53:17.857Z,35.76
2022-09-05T14:03:38.888Z,36.88
2022-09-05T14:14:11.382Z,36.81
2022-09-05T14:24:17.738Z,33.78
2022-09-05T14:37:43.356Z,34.20
2022-09-05T14:45:30.520Z,34.97
2022-09-05T14:55:33.858Z,34.39
2022-09-05T15:05:46.170Z,33.66
2022-09-05T15:16:02.441Z,33.61
2022-09-05T15:26:15.832Z,33.63
2022-09-05T15:36:35.907Z,33.27
2022-09-05T15:46:37.314Z,32.47
2022-09-05T15:56:46.918Z,31.97
2022-09-05T16:10:38.655Z,31.67
2022-09-05T16:23:13.469Z,31.39
2022-09-05T16:28:10.896Z,31.24
2022-09-05T16:38:27.316Z,30.94
2022-09-05T16:48:55.066Z,30.51
2022-09-05T16:59:03.201Z,30.22
2022-09-05T17:09:12.817Z,29.86
2022-09-05T17:19:22.149Z,29.49
2022-09-05T17:40:17.795Z,28.50
2022-09-05T17:50:25.347Z,28.00
2022-09-05T18:00:48.676Z,27.54
2022-09-05T18:11:02.152Z,27.13
2022-09-05T18:21:22.038Z,26.72
2022-09-05T18:31:42.529Z,26.40
2022-09-05T18:41:45.469Z,26.13
2022-09-05T18:51:54.225Z,25.91
2022-09-05T19:02:00.669Z,25.72
2022-09-05T19:12:33.923Z,25.55
2022-09-05T19:23:09.157Z,25.34
2022-09-05T19:36:54.342Z,25.20
2022-09-05T19:47:51.216Z,25.12
2022-09-05T19:53:55.216Z,24.89
2022-09-05T20:04:07.129Z,24.63
2022-09-05T20:14:30.618Z,24.37
2022-09-05T20:24:32.699Z,24.17
2022-09-05T20:36:27.961Z,24.00
2022-09-05T20:45:03.813Z,23.82
2022-09-05T20:55:40.010Z,23.61
2022-09-05T21:05:43.853Z,23.48
2022-09-05T21:15:52.606Z,23.35
2022-09-05T21:25:57.997Z,23.20
2022-09-05T21:36:01.801Z,23.08
2022-09-05T21:47:48.625Z,22.93
2022-09-05T21:59:19.271Z,22.85
2022-09-05T22:06:57.466Z,22.73
2022-09-05T22:17:01.418Z,22.65
2022-09-05T22:27:11.073Z,22.57
2022-09-05T22:37:16.307Z,22.42
2022-09-05T22:47:19.933Z,22.20
2022-09-05T22:57:21.401Z,22.15
2022-09-05T23:07:23.569Z,22.03
2022-09-05T23:17:25.130Z,21.96
2022-09-05T23:27:26.762Z,21.79
2022-09-05T23:37:28.311Z,21.72
2022-09-05T23:47:29.902Z,21.49
2022-09-05T23:57:31.518Z,21.43
